createdAt,value
2022-08-16T00:01:33.671Z,99315.94
2022-08-16T00:11:37.146Z,99320.47
2022-08-16T00:21:44.955Z,99322.97
2022-08-16T00:32:00.406Z,99332.50
2022-08-16T00:42:10.271Z,99332.22
2022-08-16T00:52:29.610Z,99324.53
2022-08-16T01:02:33.254Z,99325.59
2022-08-16T01:12:35.193Z,99335.31
2022-08-16T01:22:49.715Z,99339.91
2022-08-16T01:32:59.487Z,99344.59
2022-08-16T01:43:20.019Z,99355.63
2022-08-16T01:53:26.875Z,99337.28
2022-08-16T02:03:34.660Z,99334.06
2022-08-16T02:13:41.927Z,99337.78
2022-08-16T02:23:44.084Z,99327.13
2022-08-16T02:33:50.118Z,99319.50
2022-08-16T02:43:52.271Z,99320.59
2022-08-16T02:53:54.467Z,99323.38
2022-08-16T03:04:30.044Z,99328.38
2022-08-16T03:14:24.814Z,99330.81
2022-08-16T03:24:29.856Z,99342.06
2022-08-16T03:34:33.550Z,99356.78
2022-08-16T03:44:49.479Z,99365.59
2022-08-16T03:54:58.246Z,99375.41
2022-08-16T04:05:04.046Z,99383.09
2022-08-16T04:15:08.708Z,99384.00
2022-08-16T04:25:12.992Z,99380.25
2022-08-16T04:35:17.976Z,99399.75
2022-08-16T04:45:35.287Z,99390.31
2022-08-16T04:55:39.056Z,99388.31
2022-08-16T05:05:55.491Z,99367.03
2022-08-16T05:16:01.327Z,99399.66
2022-08-16T05:26:03.203Z,99382.25
2022-08-16T05:36:05.175Z,99410.28
2022-08-16T05:46:28.940Z,99411.63
2022-08-16T05:56:34.209Z,99398.53
2022-08-16T06:06:43.538Z,99402.56
2022-08-16T06:16:59.045Z,99406.63
2022-08-16T06:27:08.358Z,99406.88
2022-08-16T06:37:10.149Z,99426.16
2022-08-16T06:47:13.119Z,99403.66
2022-08-16T06:57:20.180Z,99397.50
2022-08-16T07:07:22.029Z,99410.41
2022-08-16T07:17:24.944Z,99417.09
2022-08-16T07:27:26.687Z,99417.88
2022-08-16T07:37:33.700Z,99423.34
2022-08-16T07:47:35.816Z,99441.09
2022-08-16T07:57:57.997Z,99434.50
2022-08-16T08:08:00.485Z,99426.66
2022-08-16T08:18:30.636Z,99425.00
2022-08-16T08:28:24.208Z,99436.13
2022-08-16T08:38:44.137Z,99442.94
2022-08-16T08:48:58.342Z,99438.28
2022-08-16T08:59:13.367Z,99434.34
2022-08-16T09:09:22.931Z,99433.81
2022-08-16T09:19:31.980Z,99415.16
2022-08-16T09:29:44.691Z,99417.38
2022-08-16T09:39:50.257Z,99410.53
2022-08-16T09:49:52.234Z,99409.75
2022-08-16T09:59:56.489Z,99406.75
2022-08-16T10:09:58.562Z,99400.28
2022-08-16T10:20:00.208Z,99398.63
2022-08-16T10:30:06.468Z,99404.16
2022-08-16T10:40:28.559Z,99394.69
2022-08-16T10:50:32.671Z,99387.41
2022-08-16T11:00:35.180Z,99390.75
2022-08-16T11:11:04.684Z,99383.34
2022-08-16T11:21:05.656Z,99388.31
2022-08-16T11:31:08.812Z,99380.59
2022-08-16T11:41:10.841Z,99393.38
2022-08-16T11:51:14.659Z,99410.34
2022-08-16T12:01:16.880Z,99433.75
2022-08-16T12:11:33.295Z,99420.16
2022-08-16T12:21:35.860Z,99408.56
2022-08-16T12:32:01.608Z,99406.66
2022-08-16T12:42:24.518Z,99388.72
2022-08-16T12:52:41.671Z,99397.59
2022-08-16T13:02:55.335Z,99391.91
2022-08-16T13:12:57.616Z,99375.09
2022-08-16T13:23:07.593Z,99371.56
2022-08-16T13:33:19.011Z,99355.41
2022-08-16T13:43:32.551Z,99368.25
2022-08-16T13:53:35.022Z,99360.97
2022-08-16T14:03:40.960Z,99352.13
2022-08-16T14:13:43.903Z,99352.56
2022-08-16T14:23:45.909Z,99339.84
2022-08-16T14:33:48.934Z,99348.00
2022-08-16T14:43:50.571Z,99368.25
2022-08-16T14:53:52.873Z,99376.13
2022-08-16T15:03:55.240Z,99375.38
2022-08-16T15:14:22.292Z,99404.69
2022-08-16T15:24:25.923Z,99404.53
2022-08-16T15:34:27.846Z,99411.22
2022-08-16T15:44:44.780Z,99415.41
2022-08-16T15:54:57.051Z,99423.78
2022-08-16T16:05:06.738Z,99422.66
2022-08-16T16:15:09.188Z,99405.91
2022-08-16T16:25:11.097Z,99420.69
2022-08-16T16:35:14.458Z,99426.38
2022-08-16T16:45:17.817Z,99409.25
2022-08-16T16:55:26.775Z,99422.81
2022-08-16T17:05:32.424Z,99453.66
2022-08-16T17:15:36.403Z,99426.50
2022-08-16T17:25:42.601Z,99471.88
2022-08-16T17:35:55.216Z,99467.06
2022-08-16T17:45:58.243Z,99479.28
2022-08-16T17:56:00.536Z,99501.84
2022-08-16T18:06:02.596Z,99502.50
2022-08-16T18:16:07.387Z,99517.75
2022-08-16T18:26:16.178Z,99515.25
2022-08-16T18:36:20.592Z,99508.81
2022-08-16T18:46:34.094Z,99513.38
2022-08-16T18:56:56.930Z,99514.03
2022-08-16T19:06:57.620Z,99517.97
2022-08-16T19:17:01.727Z,99516.13
2022-08-16T19:27:05.940Z,99512.56
2022-08-16T19:37:09.319Z,99521.47
2022-08-16T19:47:11.654Z,99535.13
2022-08-16T19:57:15.273Z,99534.59
2022-08-16T20:07:17.412Z,99542.97
2022-08-16T20:17:24.833Z,99537.88
2022-08-16T20:27:34.924Z,99544.72
2022-08-16T20:37:39.806Z,99554.53
2022-08-16T20:47:43.464Z,99553.75
2022-08-16T20:57:45.483Z,99551.69
2022-08-16T21:07:50.813Z,99561.38
2022-08-16T21:17:53.835Z,99556.44
2022-08-16T21:28:42.692Z,99572.69
2022-08-16T21:38:29.432Z,99585.31
2022-08-16T21:48:35.968Z,99577.00
2022-08-16T21:58:38.232Z,99591.41
2022-08-16T22:08:49.800Z,99580.16
2022-08-16T22:18:52.634Z,99591.63
2022-08-16T22:28:57.866Z,99596.56
2022-08-16T22:39:05.888Z,99602.09
2022-08-16T22:49:08.486Z,99598.69
2022-08-16T22:59:10.230Z,99591.75
2022-08-16T23:09:11.933Z,99577.88
2022-08-16T23:19:15.670Z,99575.16
2022-08-16T23:29:23.973Z,99583.53
2022-08-16T23:39:27.588Z,99579.97
2022-08-16T23:49:56.185Z,99584.66
2022-08-16T23:59:53.935Z,99599.63
